Home > Products > Valid Products > TAF

000
FTUS44 KLUB 231100
TAFLBB
TAF
KLBB 231127Z 2312/2412 11010KT P6SM FEW080 FEW250=



000
FTUS44 KLUB 231100
TAFCDS
TAF
KCDS 231127Z 2312/2412 10009KT P6SM FEW080 FEW250=



000
FTUS44 KLUB 230500
TAFCDS
TAF
KCDS 230520Z 2306/2406 13008KT P6SM SCT250=



000
FTUS44 KLUB 230500
TAFLBB
TAF
KLBB 230520Z 2306/2406 VRB05KT P6SM BKN250
     FM231800 11010KT P6SM FEW080 SCT250=



000
FTUS44 KLUB 222300
TAFLBB
TAF
KLBB 222320Z 2300/2324 14008KT P6SM FEW070 BKN200=



000
FTUS44 KLUB 222300
TAFCDS
TAF
KCDS 222320Z 2300/2324 15007KT P6SM FEW070 FEW200=



000
FTUS44 KLUB 222000 AAB
TAFLBB
TAF AMD
KLBB 222030Z 2221/2318 12012G20KT P6SM VCTS SCT080CB BKN200
     FM230100 VRB06KT P6SM BKN250=



000
FTUS44 KLUB 221800 AAA
TAFLBB
TAF AMD
KLBB 221855Z 2219/2318 19011KT P6SM VCTS SCT080CB SCT200
     FM230100 VRB06KT P6SM BKN250=



000
FTUS44 KLUB 221700
TAFLBB
TAF
KLBB 221720Z 2218/2318 19011KT P6SM SCT200
     FM230100 VRB06KT P6SM BKN250=



000
FTUS44 KLUB 221700
TAFCDS
TAF
KCDS 221720Z 2218/2318 15011KT P6SM FEW200=



000
FTUS44 KLUB 221100
TAFLBB
TAF
KLBB 221120Z 2212/2312 VRB04KT P6SM SCT100 BKN250
     FM221800 15012KT P6SM FEW080 SCT250
     FM230100 10006KT P6SM SCT250=



000
FTUS44 KLUB 221100
TAFCDS
TAF
KCDS 221120Z 2212/2312 17007KT P6SM FEW120 BKN250
     FM221800 15010KT P6SM FEW080=



000
FTUS44 KLUB 220500
TAFCDS
TAF
KCDS 220520Z 2206/2306 13007KT P6SM FEW250
     FM221800 15010KT P6SM FEW080=



000
FTUS44 KLUB 220500
TAFLBB
TAF
KLBB 220520Z 2206/2306 16008KT P6SM SCT250
     FM221800 15012KT P6SM FEW080 SCT250
     FM230100 10006KT P6SM SCT250=



000
FTUS44 KLUB 212300
TAFCDS
TAF
KCDS 212320Z 2200/2224 16014KT P6SM FEW080
     FM220200 16006KT P6SM FEW250
     FM221800 15010KT P6SM FEW080 SCT250=



000
FTUS44 KLUB 212300
TAFLBB
TAF
KLBB 212320Z 2200/2224 16013KT P6SM FEW080 OVC250
     FM220200 16006KT P6SM SCT250
     FM221800 15012KT P6SM FEW080 SCT250=



000
FTUS44 KLUB 211700
TAFLBB
TAF
KLBB 211735Z 2118/2218 16008KT P6SM FEW250
     FM211900 16013KT P6SM FEW080
     FM220100 14008KT P6SM FEW250=



000
FTUS44 KLUB 211700
TAFCDS
TAF
KCDS 211735Z 2118/2218 16007KT P6SM FEW250
     FM212000 16014KT P6SM FEW080
     FM220100 16006KT P6SM FEW250=



000
FTUS44 KLUB 211100
TAFLBB
TAF
KLBB 211120Z 2112/2212 16008KT P6SM FEW250
     FM211700 16013KT P6SM FEW080
     FM220100 14008KT P6SM FEW250=



000
FTUS44 KLUB 211100
TAFCDS
TAF
KCDS 211120Z 2112/2212 17007KT P6SM FEW250
     FM211800 16014KT P6SM FEW080
     FM220100 16006KT P6SM FEW250=



000
FTUS44 KLUB 210500
TAFLBB
TAF
KLBB 210520Z 2106/2206 14011KT P6SM SCT250
     FM211500 17013KT P6SM FEW080=



000
FTUS44 KLUB 210500
TAFCDS
TAF
KCDS 210520Z 2106/2206 17012KT P6SM FEW250=



000
FTUS44 KLUB 202300
TAFCDS
TAF
KCDS 202331Z 2100/2124 16011KT P6SM FEW200=



000
FTUS44 KLUB 202300
TAFLBB
TAF
KLBB 202331Z 2100/2124 17011KT P6SM SCT200=



000
FTUS44 KLUB 201700
TAFCDS
TAF
KCDS 201720Z 2018/2118 16013KT P6SM SCT060
     FM210200 16008KT P6SM FEW250=



000
FTUS44 KLUB 201700
TAFLBB
TAF
KLBB 201720Z 2018/2118 17014KT P6SM SCT060 SCT250
     FM210200 16008KT P6SM SCT250=



000
FTUS44 KLUB 201500 AAA
TAFCDS
TAF AMD
KCDS 201507Z 2015/2112 19012KT P6SM FEW040 SCT200
     FM201900 16013KT P6SM SCT060
     FM210200 16008KT P6SM FEW250=



000
FTUS44 KLUB 201500 AAA
TAFLBB
TAF AMD
KLBB 201505Z 2015/2112 19014KT P6SM FEW150 SCT250
     FM201800 17014KT P6SM SCT060 SCT250
     FM210200 16008KT P6SM SCT250=



    US Dept of Commerce
    National Oceanic and Atmospheric Administration
    National Weather Service
    1325 East West Highway
    Silver Spring, MD 20910
    Page Author: NWS Internet Services Team
Disclaimer
Information Quality
Credits
Glossary
Privacy Policy
Freedom of Information Act (FOIA)
About Us
Career Opportunities